sensor_id;sensor_type;location;lat;lon;timestamp;pressure;altitude;pressure_sealevel;temperature;humidity
44734;BME280;30462;52.446;-1.930;2024-01-25T00:00:15;101430.3828;;;;
44734;BME280;30462;52.446;-1.930;2024-01-25T00:01:14;101420.0703;;;;
44734;BME280;30462;52.446;-1.930;2024-01-25T00:02:14;101418.3945;;;;
44734;BME280;30462;52.446;-1.930;2024-01-25T00:03:14;101421.0234;;;;
44734;BME280;30462;52.446;-1.930;2024-01-25T00:04:14;101417.9492;;;;
44734;BME280;30462;52.446;-1.930;2024-01-25T00:05:14;101425.6289;;;;
44734;BME280;30462;52.446;-1.930;2024-01-25T00:06:14;101423.4766;;;;
44734;BME280;30462;52.446;-1.930;2024-01-25T00:07:13;101430.1328;;;;
44734;BME280;30462;52.446;-1.930;2024-01-25T00:08:14;101429.2383;;;;
44734;BME280;30462;52.446;-1.930;2024-01-25T00:09:14;101429.0234;;;;
44734;BME280;30462;52.446;-1.930;2024-01-25T00:10:14;101433.1211;;;;
44734;BME280;30462;52.446;-1.930;2024-01-25T00:11:14;101437.9805;;;;
44734;BME280;30462;52.446;-1.930;2024-01-25T00:12:14;101437.8555;;;;
44734;BME280;30462;52.446;-1.930;2024-01-25T00:13:14;101437.4883;;;;
44734;BME280;30462;52.446;-1.930;2024-01-25T00:14:14;101439.6016;;;;
44734;BME280;30462;52.446;-1.930;2024-01-25T00:15:13;101433.6367;;;;
44734;BME280;30462;52.446;-1.930;2024-01-25T00:16:13;101433.8086;;;;
44734;BME280;30462;52.446;-1.930;2024-01-25T00:17:13;101435.2266;;;;
44734;BME280;30462;52.446;-1.930;2024-01-25T00:18:14;101435.0859;;;;
44734;BME280;30462;52.446;-1.930;2024-01-25T00:19:14;101437.4609;;;;
44734;BME280;30462;52.446;-1.930;2024-01-25T00:20:14;101440.4219;;;;
44734;BME280;30462;52.446;-1.930;2024-01-25T00:21:14;101441.8633;;;;
44734;BME280;30462;52.446;-1.930;2024-01-25T00:22:14;101440.168;;;;
44734;BME280;30462;52.446;-1.930;2024-01-25T00:23:14;101438.6094;;;;
44734;BME280;30462;52.446;-1.930;2024-01-25T00:24:14;101437.8281;;;;
44734;BME280;30462;52.446;-1.930;2024-01-25T00:25:14;101435.6758;;;;
44734;BME280;30462;52.446;-1.930;2024-01-25T00:26:14;101431.4297;;;;
44734;BME280;30462;52.446;-1.930;2024-01-25T00:27:14;101430.0273;;;;
44734;BME280;30462;52.446;-1.930;2024-01-25T00:28:14;101425.3555;;;;
44734;BME280;30462;52.446;-1.930;2024-01-25T00:29:14;101420.2344;;;;
44734;BME280;30462;52.446;-1.930;2024-01-25T00:30:13;101416.2695;;;;
44734;BME280;30462;52.446;-1.930;2024-01-25T00:31:14;101417.0117;;;;
44734;BME280;30462;52.446;-1.930;2024-01-25T00:32:14;101411.3477;;;;
44734;BME280;30462;52.446;-1.930;2024-01-25T00:33:13;101407.3125;;;;
44734;BME280;30462;52.446;-1.930;2024-01-25T00:34:14;101405.7461;;;;
44734;BME280;30462;52.446;-1.930;2024-01-25T00:35:14;101404.7266;;;;
44734;BME280;30462;52.446;-1.930;2024-01-25T00:36:14;101404.9414;;;;
44734;BME280;30462;52.446;-1.930;2024-01-25T00:37:14;101408.9883;;;;
44734;BME280;30462;52.446;-1.930;2024-01-25T00:38:14;101412.7969;;;;
44734;BME280;30462;52.446;-1.930;2024-01-25T00:39:13;101415.1797;;;;
44734;BME280;30462;52.446;-1.930;2024-01-25T00:40:14;101412.5352;;;;
44734;BME280;30462;52.446;-1.930;2024-01-25T00:41:15;101415.4023;;;;
44734;BME280;30462;52.446;-1.930;2024-01-25T00:42:14;101415.1875;;;;
44734;BME280;30462;52.446;-1.930;2024-01-25T00:43:14;101415.4844;;;;
44734;BME280;30462;52.446;-1.930;2024-01-25T00:44:14;101420.1172;;;;
44734;BME280;30462;52.446;-1.930;2024-01-25T00:45:14;101422.0664;;;;
44734;BME280;30462;52.446;-1.930;2024-01-25T00:46:14;101427.7227;;;;
44734;BME280;30462;52.446;-1.930;2024-01-25T00:47:14;101432.4688;;;;
44734;BME280;30462;52.446;-1.930;2024-01-25T00:48:14;101433.3867;;;;
44734;BME280;30462;52.446;-1.930;2024-01-25T00:49:14;101430.4141;;;;
44734;BME280;30462;52.446;-1.930;2024-01-25T00:50:14;101433.5156;;;;
44734;BME280;30462;52.446;-1.930;2024-01-25T00:51:15;101432.9414;;;;
44734;BME280;30462;52.446;-1.930;2024-01-25T00:52:14;101433.8086;;;;
44734;BME280;30462;52.446;-1.930;2024-01-25T00:53:14;101427.6484;;;;
44734;BME280;30462;52.446;-1.930;2024-01-25T00:54:14;101423.6563;;;;
44734;BME280;30462;52.446;-1.930;2024-01-25T00:55:15;101419.4492;;;;
44734;BME280;30462;52.446;-1.930;2024-01-25T00:56:14;101419.3164;;;;
44734;BME280;30462;52.446;-1.930;2024-01-25T00:57:14;101414.4727;;;;
44734;BME280;30462;52.446;-1.930;2024-01-25T00:58:14;101410.2461;;;;
44734;BME280;30462;52.446;-1.930;2024-01-25T00:59:14;101410.5156;;;;
44734;BME280;30462;52.446;-1.930;2024-01-25T01:00:14;101404.5938;;;;
44734;BME280;30462;52.446;-1.930;2024-01-25T01:01:14;101398.4297;;;;
44734;BME280;30462;52.446;-1.930;2024-01-25T01:02:14;101397.2852;;;;
44734;BME280;30462;52.446;-1.930;2024-01-25T01:03:14;101393.8438;;;;
44734;BME280;30462;52.446;-1.930;2024-01-25T01:04:14;101394.1797;;;;
44734;BME280;30462;52.446;-1.930;2024-01-25T01:05:14;101392.4219;;;;
44734;BME280;30462;52.446;-1.930;2024-01-25T01:06:14;101393.7344;;;;
44734;BME280;30462;52.446;-1.930;2024-01-25T01:07:14;101394.5078;;;;
44734;BME280;30462;52.446;-1.930;2024-01-25T01:08:14;101391.1758;;;;
44734;BME280;30462;52.446;-1.930;2024-01-25T01:09:14;101392.0938;;;;
44734;BME280;30462;52.446;-1.930;2024-01-25T01:10:14;101391.5273;;;;
44734;BME280;30462;52.446;-1.930;2024-01-25T01:11:14;101387.9492;;;;
44734;BME280;30462;52.446;-1.930;2024-01-25T01:12:14;101386.0313;;;;
44734;BME280;30462;52.446;-1.930;2024-01-25T01:13:14;101389.2969;;;;
44734;BME280;30462;52.446;-1.930;2024-01-25T01:14:14;101387.2891;;;;
44734;BME280;30462;52.446;-1.930;2024-01-25T01:15:13;101387.7695;;;;
44734;BME280;30462;52.446;-1.930;2024-01-25T01:16:14;101381.5664;;;;
44734;BME280;30462;52.446;-1.930;2024-01-25T01:17:14;101380.125;;;;
44734;BME280;30462;52.446;-1.930;2024-01-25T01:18:14;101379.793;;;;
44734;BME280;30462;52.446;-1.930;2024-01-25T01:19:14;101374.957;;;;
44734;BME280;30462;52.446;-1.930;2024-01-25T01:20:13;101375.6094;;;;
44734;BME280;30462;52.446;-1.930;2024-01-25T01:21:13;101376.7734;;;;
44734;BME280;30462;52.446;-1.930;2024-01-25T01:22:14;101375.5703;;;;
44734;BME280;30462;52.446;-1.930;2024-01-25T01:23:14;101374.4297;;;;
44734;BME280;30462;52.446;-1.930;2024-01-25T01:24:14;101374.1211;;;;
44734;BME280;30462;52.446;-1.930;2024-01-25T01:25:14;101372.0977;;;;
44734;BME280;30462;52.446;-1.930;2024-01-25T01:26:14;101373.1016;;;;
44734;BME280;30462;52.446;-1.930;2024-01-25T01:27:14;101371.7656;;;;
44734;BME280;30462;52.446;-1.930;2024-01-25T01:28:13;101372.6563;;;;
44734;BME280;30462;52.446;-1.930;2024-01-25T01:29:14;101376.0586;;;;
44734;BME280;30462;52.446;-1.930;2024-01-25T01:30:14;101379.4766;;;;
44734;BME280;30462;52.446;-1.930;2024-01-25T01:31:14;101371.1016;;;;
44734;BME280;30462;52.446;-1.930;2024-01-25T01:32:14;101371.7422;;;;
44734;BME280;30462;52.446;-1.930;2024-01-25T01:33:14;101370.3555;;;;
44734;BME280;30462;52.446;-1.930;2024-01-25T01:34:13;101366.5898;;;;
44734;BME280;30462;52.446;-1.930;2024-01-25T01:35:14;101362.7422;;;;
44734;BME280;30462;52.446;-1.930;2024-01-25T01:36:14;101364.0781;;;;
44734;BME280;30462;52.446;-1.930;2024-01-25T01:37:14;101364.1563;;;;
44734;BME280;30462;52.446;-1.930;2024-01-25T01:38:14;101363.875;;;;
44734;BME280;30462;52.446;-1.930;2024-01-25T01:39:14;101360.3008;;;;
44734;BME280;30462;52.446;-1.930;2024-01-25T01:40:13;101358.9102;;;;
44734;BME280;30462;52.446;-1.930;2024-01-25T01:41:13;101357.6797;;;;
44734;BME280;30462;52.446;-1.930;2024-01-25T01:42:14;101360.25;;;;
44734;BME280;30462;52.446;-1.930;2024-01-25T01:44:14;101354.3438;;;;
44734;BME280;30462;52.446;-1.930;2024-01-25T01:45:13;101353.9766;;;;
44734;BME280;30462;52.446;-1.930;2024-01-25T01:46:17;101351.1367;;;;
44734;BME280;30462;52.446;-1.930;2024-01-25T01:47:14;101339.9609;;;;
44734;BME280;30462;52.446;-1.930;2024-01-25T01:48:14;101336.4375;;;;
44734;BME280;30462;52.446;-1.930;2024-01-25T01:49:14;101330.9883;;;;
44734;BME280;30462;52.446;-1.930;2024-01-25T01:50:14;101326.8203;;;;
44734;BME280;30462;52.446;-1.930;2024-01-25T01:51:14;101323.5234;;;;
44734;BME280;30462;52.446;-1.930;2024-01-25T01:52:14;101319.3594;;;;
44734;BME280;30462;52.446;-1.930;2024-01-25T01:53:14;101318.7305;;;;
44734;BME280;30462;52.446;-1.930;2024-01-25T01:54:14;101316.6563;;;;
44734;BME280;30462;52.446;-1.930;2024-01-25T01:55:14;101315.9102;;;;
44734;BME280;30462;52.446;-1.930;2024-01-25T01:56:14;101314.8281;;;;
44734;BME280;30462;52.446;-1.930;2024-01-25T01:57:14;101314.6133;;;;
44734;BME280;30462;52.446;-1.930;2024-01-25T01:58:14;101320.8984;;;;
44734;BME280;30462;52.446;-1.930;2024-01-25T01:59:14;101320.7344;;;;
44734;BME280;30462;52.446;-1.930;2024-01-25T02:00:14;101322.9492;;;;
44734;BME280;30462;52.446;-1.930;2024-01-25T02:01:14;101319.9453;;;;
44734;BME280;30462;52.446;-1.930;2024-01-25T02:02:14;101325.1992;;;;
44734;BME280;30462;52.446;-1.930;2024-01-25T02:03:13;101326.2031;;;;
44734;BME280;30462;52.446;-1.930;2024-01-25T02:04:14;101327.4453;;;;
44734;BME280;30462;52.446;-1.930;2024-01-25T02:05:14;101330.8633;;;;
44734;BME280;30462;52.446;-1.930;2024-01-25T02:06:14;101329.9805;;;;
44734;BME280;30462;52.446;-1.930;2024-01-25T02:07:14;101328.5586;;;;
44734;BME280;30462;52.446;-1.930;2024-01-25T02:08:14;101328.8438;;;;
44734;BME280;30462;52.446;-1.930;2024-01-25T02:09:13;101326.8203;;;;
44734;BME280;30462;52.446;-1.930;2024-01-25T02:10:13;101318.3242;;;;
44734;BME280;30462;52.446;-1.930;2024-01-25T02:11:13;101318.332;;;;
44734;BME280;30462;52.446;-1.930;2024-01-25T02:12:15;101317.1836;;;;
44734;BME280;30462;52.446;-1.930;2024-01-25T02:13:14;101314.4141;;;;
44734;BME280;30462;52.446;-1.930;2024-01-25T02:14:14;101310.2227;;;;
44734;BME280;30462;52.446;-1.930;2024-01-25T02:15:14;101306.543;;;;
44734;BME280;30462;52.446;-1.930;2024-01-25T02:16:14;101301.6992;;;;
44734;BME280;30462;52.446;-1.930;2024-01-25T02:17:14;101297.0078;;;;
44734;BME280;30462;52.446;-1.930;2024-01-25T02:18:14;101298.668;;;;
44734;BME280;30462;52.446;-1.930;2024-01-25T02:19:13;101293.5195;;;;
44734;BME280;30462;52.446;-1.930;2024-01-25T02:20:17;101290.7461;;;;
44734;BME280;30462;52.446;-1.930;2024-01-25T02:21:14;101281.2852;;;;
44734;BME280;30462;52.446;-1.930;2024-01-25T02:22:15;101283.3906;;;;
44734;BME280;30462;52.446;-1.930;2024-01-25T02:23:14;101287.0195;;;;
44734;BME280;30462;52.446;-1.930;2024-01-25T02:24:13;101288.0859;;;;
44734;BME280;30462;52.446;-1.930;2024-01-25T02:25:14;101287.3555;;;;
44734;BME280;30462;52.446;-1.930;2024-01-25T02:26:13;101289.5391;;;;
44734;BME280;30462;52.446;-1.930;2024-01-25T02:27:14;101285.5391;;;;
44734;BME280;30462;52.446;-1.930;2024-01-25T02:28:14;101280.5313;;;;
44734;BME280;30462;52.446;-1.930;2024-01-25T02:29:14;101280.1406;;;;
44734;BME280;30462;52.446;-1.930;2024-01-25T02:30:14;101277.5313;;;;
44734;BME280;30462;52.446;-1.930;2024-01-25T02:31:14;101275.8906;;;;
44734;BME280;30462;52.446;-1.930;2024-01-25T02:32:13;101276.1016;;;;
44734;BME280;30462;52.446;-1.930;2024-01-25T02:33:14;101276.4258;;;;
44734;BME280;30462;52.446;-1.930;2024-01-25T02:34:14;101277.9453;;;;
44734;BME280;30462;52.446;-1.930;2024-01-25T02:35:14;101276.3633;;;;
44734;BME280;30462;52.446;-1.930;2024-01-25T02:36:14;101281.0039;;;;
44734;BME280;30462;52.446;-1.930;2024-01-25T02:37:13;101277.4922;;;;
44734;BME280;30462;52.446;-1.930;2024-01-25T02:38:14;101278.9453;;;;
44734;BME280;30462;52.446;-1.930;2024-01-25T02:39:14;101282.9258;;;;
44734;BME280;30462;52.446;-1.930;2024-01-25T02:40:14;101287.4023;;;;
44734;BME280;30462;52.446;-1.930;2024-01-25T02:41:14;101283.0742;;;;
44734;BME280;30462;52.446;-1.930;2024-01-25T02:42:14;101286.2578;;;;
44734;BME280;30462;52.446;-1.930;2024-01-25T02:43:14;101286.6172;;;;
44734;BME280;30462;52.446;-1.930;2024-01-25T02:44:14;101285.4766;;;;
44734;BME280;30462;52.446;-1.930;2024-01-25T02:45:14;101287.4961;;;;
44734;BME280;30462;52.446;-1.930;2024-01-25T02:46:14;101292.3516;;;;
44734;BME280;30462;52.446;-1.930;2024-01-25T02:47:14;101291.1992;;;;
44734;BME280;30462;52.446;-1.930;2024-01-25T02:48:14;101290.5117;;;;
44734;BME280;30462;52.446;-1.930;2024-01-25T02:49:14;101282.1328;;;;
44734;BME280;30462;52.446;-1.930;2024-01-25T02:50:14;101280.8164;;;;
44734;BME280;30462;52.446;-1.930;2024-01-25T02:51:14;101278.9414;;;;
44734;BME280;30462;52.446;-1.930;2024-01-25T02:52:13;101273.8125;;;;
44734;BME280;30462;52.446;-1.930;2024-01-25T02:53:14;101270.4648;;;;
44734;BME280;30462;52.446;-1.930;2024-01-25T02:54:13;101267.6289;;;;
44734;BME280;30462;52.446;-1.930;2024-01-25T02:55:14;101262.0859;;;;
44734;BME280;30462;52.446;-1.930;2024-01-25T02:56:13;101259.2617;;;;
44734;BME280;30462;52.446;-1.930;2024-01-25T02:57:14;101260.0039;;;;
44734;BME280;30462;52.446;-1.930;2024-01-25T02:58:14;101259.9609;;;;
44734;BME280;30462;52.446;-1.930;2024-01-25T02:59:14;101258.4141;;;;
44734;BME280;30462;52.446;-1.930;2024-01-25T03:00:14;101256.6797;;;;
44734;BME280;30462;52.446;-1.930;2024-01-25T03:01:13;101254.0352;;;;
44734;BME280;30462;52.446;-1.930;2024-01-25T03:02:14;101253.9141;;;;
44734;BME280;30462;52.446;-1.930;2024-01-25T03:03:14;101254.6055;;;;
44734;BME280;30462;52.446;-1.930;2024-01-25T03:04:14;101253.7617;;;;
44734;BME280;30462;52.446;-1.930;2024-01-25T03:05:14;101251.2188;;;;
44734;BME280;30462;52.446;-1.930;2024-01-25T03:06:13;101248.1563;;;;
44734;BME280;30462;52.446;-1.930;2024-01-25T03:07:14;101245.75;;;;
44734;BME280;30462;52.446;-1.930;2024-01-25T03:08:14;101243.5625;;;;
44734;BME280;30462;52.446;-1.930;2024-01-25T03:09:14;101242.1172;;;;
44734;BME280;30462;52.446;-1.930;2024-01-25T03:10:13;101242.0938;;;;
44734;BME280;30462;52.446;-1.930;2024-01-25T03:11:13;101240.9375;;;;
44734;BME280;30462;52.446;-1.930;2024-01-25T03:12:14;101243.6211;;;;
44734;BME280;30462;52.446;-1.930;2024-01-25T03:13:14;101243.3477;;;;
44734;BME280;30462;52.446;-1.930;2024-01-25T03:14:14;101241.8242;;;;
44734;BME280;30462;52.446;-1.930;2024-01-25T03:15:14;101244.0391;;;;
44734;BME280;30462;52.446;-1.930;2024-01-25T03:16:14;101238.1484;;;;
44734;BME280;30462;52.446;-1.930;2024-01-25T03:17:14;101235.1016;;;;
44734;BME280;30462;52.446;-1.930;2024-01-25T03:18:13;101237.9609;;;;
44734;BME280;30462;52.446;-1.930;2024-01-25T03:19:14;101232.7891;;;;
44734;BME280;30462;52.446;-1.930;2024-01-25T03:20:14;101232.668;;;;
44734;BME280;30462;52.446;-1.930;2024-01-25T03:21:14;101232.0742;;;;
44734;BME280;30462;52.446;-1.930;2024-01-25T03:22:13;101233.0742;;;;
44734;BME280;30462;52.446;-1.930;2024-01-25T03:23:14;101230.0156;;;;
44734;BME280;30462;52.446;-1.930;2024-01-25T03:24:14;101225.8945;;;;
44734;BME280;30462;52.446;-1.930;2024-01-25T03:25:14;101223.1484;;;;
44734;BME280;30462;52.446;-1.930;2024-01-25T03:26:14;101222.2148;;;;
44734;BME280;30462;52.446;-1.930;2024-01-25T03:27:14;101219.6836;;;;
44734;BME280;30462;52.446;-1.930;2024-01-25T03:28:13;101213.3398;;;;
44734;BME280;30462;52.446;-1.930;2024-01-25T03:29:14;101209.8086;;;;
44734;BME280;30462;52.446;-1.930;2024-01-25T03:30:14;101208.4336;;;;
44734;BME280;30462;52.446;-1.930;2024-01-25T03:31:14;101208.1094;;;;
44734;BME280;30462;52.446;-1.930;2024-01-25T03:32:14;101209.7383;;;;
44734;BME280;30462;52.446;-1.930;2024-01-25T03:33:14;101207.5156;;;;
44734;BME280;30462;52.446;-1.930;2024-01-25T03:34:13;101208.7422;;;;
44734;BME280;30462;52.446;-1.930;2024-01-25T03:35:14;101207.1289;;;;
44734;BME280;30462;52.446;-1.930;2024-01-25T03:36:14;101205.2578;;;;
44734;BME280;30462;52.446;-1.930;2024-01-25T03:37:14;101202.9023;;;;
44734;BME280;30462;52.446;-1.930;2024-01-25T03:38:14;101198.2734;;;;
44734;BME280;30462;52.446;-1.930;2024-01-25T03:39:14;101199.0781;;;;
44734;BME280;30462;52.446;-1.930;2024-01-25T03:40:14;101195.0742;;;;
44734;BME280;30462;52.446;-1.930;2024-01-25T03:41:13;101193.4883;;;;
44734;BME280;30462;52.446;-1.930;2024-01-25T03:42:14;101194.4609;;;;
44734;BME280;30462;52.446;-1.930;2024-01-25T03:43:16;101194.9375;;;;
44734;BME280;30462;52.446;-1.930;2024-01-25T03:44:14;101188.9453;;;;
44734;BME280;30462;52.446;-1.930;2024-01-25T03:45:14;101185.7617;;;;
44734;BME280;30462;52.446;-1.930;2024-01-25T03:46:14;101186.7227;;;;
44734;BME280;30462;52.446;-1.930;2024-01-25T03:47:13;101184.457;;;;
44734;BME280;30462;52.446;-1.930;2024-01-25T03:48:13;101186.2188;;;;
44734;BME280;30462;52.446;-1.930;2024-01-25T03:49:14;101184.4219;;;;
44734;BME280;30462;52.446;-1.930;2024-01-25T03:50:14;101178.8164;;;;
44734;BME280;30462;52.446;-1.930;2024-01-25T03:51:14;101177.0039;;;;
44734;BME280;30462;52.446;-1.930;2024-01-25T03:52:14;101177.0234;;;;
44734;BME280;30462;52.446;-1.930;2024-01-25T03:53:14;101174.6484;;;;
44734;BME280;30462;52.446;-1.930;2024-01-25T03:54:14;101173.9063;;;;
44734;BME280;30462;52.446;-1.930;2024-01-25T03:55:14;101172.3281;;;;
44734;BME280;30462;52.446;-1.930;2024-01-25T03:56:13;101174.4531;;;;
44734;BME280;30462;52.446;-1.930;2024-01-25T03:57:14;101173.7031;;;;
44734;BME280;30462;52.446;-1.930;2024-01-25T03:58:14;101174.0039;;;;
44734;BME280;30462;52.446;-1.930;2024-01-25T03:59:14;101168.75;;;;
44734;BME280;30462;52.446;-1.930;2024-01-25T04:00:14;101161.8633;;;;
44734;BME280;30462;52.446;-1.930;2024-01-25T04:01:13;101164.5;;;;
44734;BME280;30462;52.446;-1.930;2024-01-25T04:02:14;101160.3203;;;;
44734;BME280;30462;52.446;-1.930;2024-01-25T04:03:14;101158.2695;;;;
44734;BME280;30462;52.446;-1.930;2024-01-25T04:04:14;101154.707;;;;
44734;BME280;30462;52.446;-1.930;2024-01-25T04:05:14;101150.6289;;;;
44734;BME280;30462;52.446;-1.930;2024-01-25T04:06:14;101147.2891;;;;
44734;BME280;30462;52.446;-1.930;2024-01-25T04:07:14;101142.4961;;;;
44734;BME280;30462;52.446;-1.930;2024-01-25T04:08:14;101140.5508;;;;
44734;BME280;30462;52.446;-1.930;2024-01-25T04:09:14;101137.5977;;;;
44734;BME280;30462;52.446;-1.930;2024-01-25T04:10:14;101135.7344;;;;
44734;BME280;30462;52.446;-1.930;2024-01-25T04:11:14;101133.9141;;;;
44734;BME280;30462;52.446;-1.930;2024-01-25T04:12:14;101129.5977;;;;
44734;BME280;30462;52.446;-1.930;2024-01-25T04:13:14;101129.832;;;;
44734;BME280;30462;52.446;-1.930;2024-01-25T04:14:14;101128.4531;;;;
44734;BME280;30462;52.446;-1.930;2024-01-25T04:15:14;101122.043;;;;
44734;BME280;30462;52.446;-1.930;2024-01-25T04:16:14;101122.2188;;;;
44734;BME280;30462;52.446;-1.930;2024-01-25T04:17:14;101123.4766;;;;
44734;BME280;30462;52.446;-1.930;2024-01-25T04:18:13;101123.2227;;;;
44734;BME280;30462;52.446;-1.930;2024-01-25T04:19:14;101122.6641;;;;
44734;BME280;30462;52.446;-1.930;2024-01-25T04:20:14;101121.8711;;;;
44734;BME280;30462;52.446;-1.930;2024-01-25T04:21:14;101121.082;;;;
44734;BME280;30462;52.446;-1.930;2024-01-25T04:22:13;101116.625;;;;
44734;BME280;30462;52.446;-1.930;2024-01-25T04:23:14;101117.9102;;;;
44734;BME280;30462;52.446;-1.930;2024-01-25T04:24:14;101114.9961;;;;
44734;BME280;30462;52.446;-1.930;2024-01-25T04:25:15;101111.8477;;;;
44734;BME280;30462;52.446;-1.930;2024-01-25T04:26:14;101109.6211;;;;
44734;BME280;30462;52.446;-1.930;2024-01-25T04:27:14;101107.3672;;;;
44734;BME280;30462;52.446;-1.930;2024-01-25T04:28:14;101111.2188;;;;
44734;BME280;30462;52.446;-1.930;2024-01-25T04:29:13;101107.8398;;;;
44734;BME280;30462;52.446;-1.930;2024-01-25T04:30:14;101113.8125;;;;
44734;BME280;30462;52.446;-1.930;2024-01-25T04:31:14;101113.25;;;;
44734;BME280;30462;52.446;-1.930;2024-01-25T04:32:14;101119.4063;;;;
44734;BME280;30462;52.446;-1.930;2024-01-25T04:33:14;101119.9492;;;;
44734;BME280;30462;52.446;-1.930;2024-01-25T04:34:14;101117.2461;;;;
44734;BME280;30462;52.446;-1.930;2024-01-25T04:35:14;101117.0781;;;;
44734;BME280;30462;52.446;-1.930;2024-01-25T04:36:14;101117.9922;;;;
44734;BME280;30462;52.446;-1.930;2024-01-25T04:37:14;101118.9023;;;;
44734;BME280;30462;52.446;-1.930;2024-01-25T04:38:14;101117.6563;;;;
44734;BME280;30462;52.446;-1.930;2024-01-25T04:39:14;101120.7422;;;;
44734;BME280;30462;52.446;-1.930;2024-01-25T04:40:14;101116.6367;;;;
44734;BME280;30462;52.446;-1.930;2024-01-25T04:41:14;101116.3125;;;;
44734;BME280;30462;52.446;-1.930;2024-01-25T04:42:13;101118.625;;;;
44734;BME280;30462;52.446;-1.930;2024-01-25T04:43:14;101114.8359;;;;
44734;BME280;30462;52.446;-1.930;2024-01-25T04:44:14;101116.3281;;;;
44734;BME280;30462;52.446;-1.930;2024-01-25T04:45:14;101115.6797;;;;
44734;BME280;30462;52.446;-1.930;2024-01-25T04:46:14;101113.0625;;;;
44734;BME280;30462;52.446;-1.930;2024-01-25T04:47:13;101114.8164;;;;
44734;BME280;30462;52.446;-1.930;2024-01-25T04:48:14;101113.3008;;;;
44734;BME280;30462;52.446;-1.930;2024-01-25T04:49:14;101114.2969;;;;
44734;BME280;30462;52.446;-1.930;2024-01-25T04:50:14;101114.457;;;;
44734;BME280;30462;52.446;-1.930;2024-01-25T04:51:15;101115.4844;;;;
44734;BME280;30462;52.446;-1.930;2024-01-25T04:52:14;101117.2344;;;;
44734;BME280;30462;52.446;-1.930;2024-01-25T04:53:14;101116.0977;;;;
44734;BME280;30462;52.446;-1.930;2024-01-25T04:54:14;101115.8438;;;;
44734;BME280;30462;52.446;-1.930;2024-01-25T04:55:13;101110.3281;;;;
44734;BME280;30462;52.446;-1.930;2024-01-25T04:56:13;101110.125;;;;
44734;BME280;30462;52.446;-1.930;2024-01-25T04:57:13;101105.9922;;;;
44734;BME280;30462;52.446;-1.930;2024-01-25T04:58:13;101103.3359;;;;
44734;BME280;30462;52.446;-1.930;2024-01-25T04:59:14;101103.1563;;;;
44734;BME280;30462;52.446;-1.930;2024-01-25T05:00:14;101099.3555;;;;
44734;BME280;30462;52.446;-1.930;2024-01-25T05:01:14;101099.1367;;;;
44734;BME280;30462;52.446;-1.930;2024-01-25T05:02:14;101099.4609;;;;
44734;BME280;30462;52.446;-1.930;2024-01-25T05:03:13;101099.1563;;;;
44734;BME280;30462;52.446;-1.930;2024-01-25T05:04:15;101099.4609;;;;
44734;BME280;30462;52.446;-1.930;2024-01-25T05:05:14;101096.2891;;;;
44734;BME280;30462;52.446;-1.930;2024-01-25T05:06:13;101094.5742;;;;
44734;BME280;30462;52.446;-1.930;2024-01-25T05:07:14;101090.4883;;;;
44734;BME280;30462;52.446;-1.930;2024-01-25T05:08:14;101088.5234;;;;
44734;BME280;30462;52.446;-1.930;2024-01-25T05:09:14;101091.4375;;;;
44734;BME280;30462;52.446;-1.930;2024-01-25T05:10:14;101093.4727;;;;
44734;BME280;30462;52.446;-1.930;2024-01-25T05:11:13;101093.7539;;;;
44734;BME280;30462;52.446;-1.930;2024-01-25T05:12:14;101092.9102;;;;
44734;BME280;30462;52.446;-1.930;2024-01-25T05:13:14;101091.4922;;;;
44734;BME280;30462;52.446;-1.930;2024-01-25T05:14:13;101090.7383;;;;
44734;BME280;30462;52.446;-1.930;2024-01-25T05:15:13;101085.1406;;;;
44734;BME280;30462;52.446;-1.930;2024-01-25T05:16:13;101089.4883;;;;
44734;BME280;30462;52.446;-1.930;2024-01-25T05:17:14;101085.6836;;;;
44734;BME280;30462;52.446;-1.930;2024-01-25T05:18:14;101087.3516;;;;
44734;BME280;30462;52.446;-1.930;2024-01-25T05:19:14;101091;;;;
44734;BME280;30462;52.446;-1.930;2024-01-25T05:20:14;101089.7148;;;;
44734;BME280;30462;52.446;-1.930;2024-01-25T05:21:14;101089.7109;;;;
44734;BME280;30462;52.446;-1.930;2024-01-25T05:22:13;101089.8555;;;;
44734;BME280;30462;52.446;-1.930;2024-01-25T05:23:13;101085.9531;;;;
44734;BME280;30462;52.446;-1.930;2024-01-25T05:24:14;101085.7422;;;;
44734;BME280;30462;52.446;-1.930;2024-01-25T05:25:14;101083.1367;;;;
44734;BME280;30462;52.446;-1.930;2024-01-25T05:26:14;101074.6719;;;;
44734;BME280;30462;52.446;-1.930;2024-01-25T05:27:14;101077.2383;;;;
44734;BME280;30462;52.446;-1.930;2024-01-25T05:28:14;101077.1641;;;;
44734;BME280;30462;52.446;-1.930;2024-01-25T05:29:14;101075.2578;;;;
44734;BME280;30462;52.446;-1.930;2024-01-25T05:30:14;101072.125;;;;
44734;BME280;30462;52.446;-1.930;2024-01-25T05:31:14;101071.9219;;;;
44734;BME280;30462;52.446;-1.930;2024-01-25T05:32:13;101067.2266;;;;
44734;BME280;30462;52.446;-1.930;2024-01-25T05:33:14;101069.9336;;;;
44734;BME280;30462;52.446;-1.930;2024-01-25T05:34:14;101069.4414;;;;
44734;BME280;30462;52.446;-1.930;2024-01-25T05:35:14;101070.5859;;;;
44734;BME280;30462;52.446;-1.930;2024-01-25T05:36:14;101070.7031;;;;
44734;BME280;30462;52.446;-1.930;2024-01-25T05:37:14;101066.9531;;;;
44734;BME280;30462;52.446;-1.930;2024-01-25T05:38:14;101063.1719;;;;
44734;BME280;30462;52.446;-1.930;2024-01-25T05:39:14;101055.5156;;;;
44734;BME280;30462;52.446;-1.930;2024-01-25T05:40:14;101058.9258;;;;
44734;BME280;30462;52.446;-1.930;2024-01-25T05:41:14;101055.5664;;;;
44734;BME280;30462;52.446;-1.930;2024-01-25T05:42:14;101054.1016;;;;
44734;BME280;30462;52.446;-1.930;2024-01-25T05:43:13;101047.6914;;;;
44734;BME280;30462;52.446;-1.930;2024-01-25T05:44:13;101044.8672;;;;
44734;BME280;30462;52.446;-1.930;2024-01-25T05:45:14;101045.5117;;;;
44734;BME280;30462;52.446;-1.930;2024-01-25T05:46:14;101043.3203;;;;